Flight Track Log - Related Links

Times and Time Zones

All times are in EDT time to prevent confusion due to time zone crossing. See the N364PH flight status page for this flight to view local times or setup timezone preferences in your user account.

Time Position Orientation Groundspeed Altitude Reporting Facility
EDT Latitude Longitude Course Direction KTS MPH feet Rate Location/Type
Tue 07:01:00 PM 38.7034 -77.3061 154° Southeast  Level Estimated
Tue 07:02:00 PM 38.6545 -77.2754 154° Southeast  Level Estimated
Tue 07:03:00 PM 38.6057 -77.2448 154° Southeast  Level Estimated
Tue 07:04:00 PM 38.5568 -77.2143 154° Southeast  Level Estimated
Tue 07:05:00 PM 38.5079 -77.1837 154° Southeast  Level Estimated
Tue 07:06:00 PM 38.4590 -77.1533 154° Southeast  Level Estimated
Tue 07:07:00 PM 38.4102 -77.1228 154° Southeast  Level Estimated
Tue 07:08:00 PM 38.3613 -77.0924 154° Southeast  Level Estimated
Tue 07:09:00 PM 38.3124 -77.0621 154° Southeast  Level Estimated
Tue 07:10:00 PM 38.2635 -77.0318 154° Southeast  Level Estimated
Tue 07:11:00 PM 38.2146 -77.0015 154° Southeast  Level Estimated
Tue 07:12:00 PM 38.1656 -76.9713 154° Southeast  Level Estimated
Tue 07:13:00 PM 38.1167 -76.9411 154° Southeast  Level Estimated
Tue 07:14:00 PM 38.0678 -76.9109 154° Southeast  Level Estimated
Tue 07:15:00 PM 38.0188 -76.8808 154° Southeast  Level Estimated
Tue 07:16:00 PM 37.9699 -76.8507 154° Southeast  Level Estimated
Tue 07:17:00 PM 37.9209 -76.8207 154° Southeast  Level Estimated
Tue 07:18:00 PM 37.8719 -76.7907 154° Southeast  Level Estimated
Tue 07:19:00 PM 37.8229 -76.7608 154° Southeast  Level Estimated
Tue 07:20:00 PM 37.7740 -76.7309 154° Southeast  Level Estimated
Tue 07:21:00 PM 37.7250 -76.7010 154° Southeast  Level Estimated
Tue 07:22:00 PM 37.6760 -76.6712 154° Southeast  Level Estimated
Tue 07:23:00 PM 37.6270 -76.6414 154° Southeast  Level Estimated
Tue 07:24:00 PM 37.5780 -76.6116 154° Southeast  Level Estimated
Tue 07:25:00 PM 37.5289 -76.5819 154° Southeast  Level Estimated
Tue 07:26:00 PM 37.4799 -76.5522 154° Southeast  Level Estimated
Tue 07:27:00 PM 37.4309 -76.5226 154° Southeast  Level Estimated
Tue 07:28:00 PM 37.3818 -76.4930 154° Southeast  Level Estimated
Tue 07:29:00 PM 37.3328 -76.4634 154° Southeast  Level Estimated
Tue 07:30:00 PM 37.2837 -76.4339 154° Southeast  Level Estimated
Tue 07:31:00 PM 37.2346 -76.4044 154° Southeast  Level Estimated
Tue 07:32:00 PM 37.1856 -76.3749 154° Southeast  Level Estimated
Tue 07:33:00 PM 37.1365 -76.3455 154° Southeast  Level Estimated
Tue 07:34:00 PM 37.0874 -76.3162 154° Southeast  Level Estimated
Tue 07:35:00 PM 37.0383 -76.2868 155° Southeast  Level Estimated
Tue 07:36:00 PM 36.9892 -76.2576 155° Southeast  Level Estimated
Tue 07:37:00 PM 36.9401 -76.2283 155° Southeast  Level Estimated
Tue 07:38:00 PM 36.8946 -76.2012 155° Southeast  Level Estimated
Tue 07:39:00 PM 36.8946 -76.2012 302° West  Level Estimated
Tue 07:40:00 PM 36.8946 -76.2012 302° West  Level Estimated
Tue 07:41:00 PM 36.8946 -76.2012 302° West  Level Estimated
Tue 07:42:00 PM 36.8946 -76.2012 302° West  Level Estimated
Tue 07:43:00 PM 36.8946 -76.2012 302° West  Level Estimated
Tue 07:44:00 PM 36.8946 -76.2012 302° West  Level Estimated

Login

Don't have an account? Register now (free) for customized features, flight alerts, and more!